createdAt,value
2019-03-27T00:00:27.384Z,59.50
2019-03-27T00:02:33.794Z,59.40
2019-03-27T00:04:39.546Z,59.40
2019-03-27T00:06:45.298Z,59.40
2019-03-27T00:08:51.223Z,59.40
2019-03-27T00:10:57.683Z,59.40
2019-03-27T00:13:03.659Z,59.40
2019-03-27T00:15:13.739Z,59.40
2019-03-27T00:17:20.496Z,59.40
2019-03-27T00:19:27.931Z,59.50
2019-03-27T00:21:33.991Z,59.50
2019-03-27T00:23:40.288Z,59.40
2019-03-27T00:25:46.223Z,59.50
2019-03-27T00:27:51.904Z,59.50
2019-03-27T00:29:58.571Z,59.60
2019-03-27T00:32:04.424Z,59.50
2019-03-27T00:34:10.507Z,59.40
2019-03-27T00:36:16.517Z,59.50
2019-03-27T00:38:22.505Z,59.50
2019-03-27T00:40:28.207Z,59.50
2019-03-27T00:42:34.271Z,59.50
2019-03-27T00:44:39.924Z,59.40
2019-03-27T00:46:45.993Z,59.40
2019-03-27T00:48:52.879Z,58.90
2019-03-27T00:50:59.196Z,59.40
2019-03-27T00:53:05.223Z,59.30
2019-03-27T00:55:11.945Z,59.20
2019-03-27T00:57:18.562Z,59.20
2019-03-27T00:59:25.472Z,59.20
2019-03-27T01:01:31.249Z,59.00
2019-03-27T01:03:37.438Z,58.90
2019-03-27T01:05:43.520Z,59.00
2019-03-27T01:07:49.708Z,58.90
2019-03-27T01:09:56.171Z,59.00
2019-03-27T01:12:02.156Z,59.00
2019-03-27T01:14:08.616Z,59.00
2019-03-27T01:16:14.786Z,59.00
2019-03-27T01:18:20.521Z,59.10
2019-03-27T01:20:26.310Z,59.10
2019-03-27T01:22:32.414Z,59.20
2019-03-27T01:24:38.323Z,59.20
2019-03-27T01:26:44.443Z,59.20
2019-03-27T01:28:50.109Z,59.20
2019-03-27T01:30:56.479Z,59.20
2019-03-27T01:33:02.313Z,59.30
2019-03-27T01:35:08.612Z,59.30
2019-03-27T01:37:14.625Z,59.40
2019-03-27T01:39:20.719Z,59.40
2019-03-27T01:41:26.894Z,59.50
2019-03-27T01:43:33.297Z,59.50
2019-03-27T01:45:52.122Z,59.50
2019-03-27T01:47:47.184Z,59.50
2019-03-27T01:49:53.469Z,59.40
2019-03-27T01:51:59.526Z,59.60
2019-03-27T01:54:06.146Z,59.60
2019-03-27T01:56:12.481Z,59.60
2019-03-27T01:58:18.793Z,59.40
2019-03-27T02:00:25.565Z,59.40
2019-03-27T02:02:33.164Z,59.50
2019-03-27T02:04:40.174Z,59.50
2019-03-27T02:06:48.461Z,59.50
2019-03-27T02:08:54.496Z,59.70
2019-03-27T02:11:00.831Z,59.60
2019-03-27T02:13:07.006Z,59.60
2019-03-27T02:15:13.237Z,59.60
2019-03-27T02:17:19.271Z,59.60
2019-03-27T02:19:25.736Z,59.70
2019-03-27T02:21:32.131Z,59.40
2019-03-27T02:23:38.479Z,59.70
2019-03-27T02:25:44.543Z,59.70
2019-03-27T02:27:50.240Z,59.60
2019-03-27T02:29:55.921Z,59.70
2019-03-27T02:32:02.316Z,59.70
2019-03-27T02:34:08.358Z,59.30
2019-03-27T02:36:14.498Z,59.80
2019-03-27T02:38:20.871Z,59.80
2019-03-27T02:40:27.399Z,59.80
2019-03-27T02:42:33.405Z,59.80
2019-03-27T02:44:39.765Z,59.70
2019-03-27T02:46:45.430Z,59.90
2019-03-27T02:48:51.242Z,59.60
2019-03-27T02:50:57.731Z,59.70
2019-03-27T02:53:03.779Z,59.60
2019-03-27T02:55:10.850Z,59.60
2019-03-27T02:57:16.607Z,59.70
2019-03-27T02:59:22.905Z,59.40
2019-03-27T03:01:31.820Z,59.30
2019-03-27T03:03:37.906Z,59.30
2019-03-27T03:05:43.687Z,59.30
2019-03-27T03:07:49.830Z,59.30
2019-03-27T03:09:56.813Z,59.10
2019-03-27T03:12:02.867Z,59.10
2019-03-27T03:14:08.706Z,59.10
2019-03-27T03:16:14.848Z,59.10
2019-03-27T03:18:21.102Z,58.90
2019-03-27T03:20:27.214Z,58.80
2019-03-27T03:22:33.895Z,58.80
2019-03-27T03:24:40.028Z,58.80
2019-03-27T03:26:50.328Z,58.70
2019-03-27T03:28:53.239Z,58.70
2019-03-27T03:30:59.947Z,58.50
2019-03-27T03:33:06.166Z,58.40
2019-03-27T03:35:12.470Z,58.50
2019-03-27T03:37:18.391Z,58.50
2019-03-27T03:39:24.123Z,58.50
2019-03-27T03:41:29.966Z,58.60
2019-03-27T03:43:35.889Z,58.70
2019-03-27T03:45:42.012Z,58.80
2019-03-27T03:47:48.142Z,58.80
2019-03-27T03:49:54.410Z,59.00
2019-03-27T03:52:01.346Z,59.80
2019-03-27T03:54:07.674Z,59.20
2019-03-27T03:56:15.679Z,59.30
2019-03-27T03:58:22.402Z,59.40
2019-03-27T04:00:28.942Z,59.40
2019-03-27T04:02:38.168Z,59.60
2019-03-27T04:04:46.665Z,59.70
2019-03-27T04:06:52.526Z,59.70
2019-03-27T04:08:58.485Z,59.90
2019-03-27T04:11:04.369Z,59.90
2019-03-27T04:13:10.215Z,60.00
2019-03-27T04:15:16.075Z,60.00
2019-03-27T04:17:22.392Z,60.00
2019-03-27T04:19:28.996Z,60.00
2019-03-27T04:21:34.801Z,60.10
2019-03-27T04:23:41.195Z,60.20
2019-03-27T04:26:08.006Z,60.20
2019-03-27T04:27:54.567Z,60.20
2019-03-27T04:30:00.812Z,60.20
2019-03-27T04:32:06.871Z,60.30
2019-03-27T04:34:13.164Z,60.40
2019-03-27T04:36:19.446Z,60.50
2019-03-27T04:38:25.787Z,60.70
2019-03-27T04:40:32.109Z,60.90
2019-03-27T04:42:38.698Z,60.90
2019-03-27T04:44:44.753Z,61.70
2019-03-27T04:46:50.427Z,61.10
2019-03-27T04:48:56.462Z,61.20
2019-03-27T04:51:02.535Z,61.10
2019-03-27T04:53:08.275Z,61.00
2019-03-27T04:55:14.483Z,61.00
2019-03-27T04:57:20.238Z,61.10
2019-03-27T04:59:25.965Z,61.10
2019-03-27T05:01:32.076Z,61.00
2019-03-27T05:03:37.768Z,61.10
2019-03-27T05:05:43.816Z,61.10
2019-03-27T05:07:50.325Z,61.20
2019-03-27T05:09:57.108Z,61.30
2019-03-27T05:12:04.091Z,61.50
2019-03-27T05:14:09.895Z,61.60
2019-03-27T05:16:16.258Z,61.70
2019-03-27T05:18:22.223Z,61.90
2019-03-27T05:20:29.266Z,61.90
2019-03-27T05:22:35.112Z,61.90
2019-03-27T05:24:41.393Z,61.80
2019-03-27T05:26:47.456Z,62.00
2019-03-27T05:28:53.227Z,62.00
2019-03-27T05:30:59.338Z,62.60
2019-03-27T05:33:05.457Z,62.10
2019-03-27T05:35:11.322Z,62.00
2019-03-27T05:37:17.822Z,62.80
2019-03-27T05:39:24.478Z,61.80
2019-03-27T05:41:31.256Z,61.80
2019-03-27T05:43:37.383Z,61.70
2019-03-27T05:45:43.812Z,61.80
2019-03-27T05:47:59.421Z,61.90
2019-03-27T05:49:57.076Z,62.00
2019-03-27T05:52:02.786Z,62.20
2019-03-27T05:54:08.901Z,62.20
2019-03-27T05:56:15.112Z,62.10
2019-03-27T05:58:21.069Z,62.20
2019-03-27T06:00:26.985Z,62.10
2019-03-27T06:02:32.921Z,62.20
2019-03-27T06:04:39.265Z,62.20
2019-03-27T06:06:45.025Z,62.40
2019-03-27T06:08:50.975Z,62.70
2019-03-27T06:10:57.034Z,62.70
2019-03-27T06:13:03.641Z,62.60
2019-03-27T06:15:09.906Z,62.60
2019-03-27T06:17:16.829Z,62.60
2019-03-27T06:19:22.956Z,62.60
2019-03-27T06:21:28.983Z,62.70
2019-03-27T06:23:34.966Z,62.80
2019-03-27T06:25:40.640Z,63.00
2019-03-27T06:27:48.306Z,63.00
2019-03-27T06:29:54.613Z,63.00
2019-03-27T06:32:00.986Z,63.00
2019-03-27T06:34:07.002Z,63.30
2019-03-27T06:36:13.059Z,63.30
2019-03-27T06:38:18.908Z,63.50
2019-03-27T06:40:25.260Z,63.50
2019-03-27T06:42:31.333Z,63.70
2019-03-27T06:44:37.120Z,63.70
2019-03-27T06:46:43.338Z,63.90
2019-03-27T06:48:49.453Z,64.20
2019-03-27T06:50:56.397Z,63.80
2019-03-27T06:53:02.656Z,63.80
2019-03-27T06:55:09.338Z,63.80
2019-03-27T06:57:15.287Z,63.80
2019-03-27T06:59:21.537Z,64.70
2019-03-27T07:01:27.284Z,63.80
2019-03-27T07:03:33.376Z,64.60
2019-03-27T07:05:39.250Z,63.70
2019-03-27T07:07:45.253Z,63.80
2019-03-27T07:09:52.226Z,63.70
2019-03-27T07:11:58.228Z,63.80
2019-03-27T07:14:04.001Z,63.80
2019-03-27T07:16:10.693Z,63.80
2019-03-27T07:18:16.839Z,63.70
2019-03-27T07:20:22.913Z,63.80
2019-03-27T07:22:29.321Z,63.60
2019-03-27T07:24:35.522Z,63.70
2019-03-27T07:26:41.560Z,64.80
2019-03-27T07:28:47.448Z,64.20
2019-03-27T07:30:53.708Z,64.40
2019-03-27T07:32:59.814Z,64.60
2019-03-27T07:35:06.160Z,64.40
2019-03-27T07:37:12.603Z,64.40
2019-03-27T07:39:18.727Z,64.40
2019-03-27T07:41:24.485Z,64.40
2019-03-27T07:43:30.582Z,64.30
2019-03-27T07:45:37.120Z,64.40
2019-03-27T07:47:43.123Z,64.30
2019-03-27T07:49:49.991Z,64.40
2019-03-27T07:51:56.209Z,64.60
2019-03-27T07:54:02.312Z,64.70
2019-03-27T07:56:08.437Z,65.10
2019-03-27T07:58:14.660Z,65.20
2019-03-27T08:00:21.073Z,65.90
2019-03-27T08:02:26.942Z,66.20
2019-03-27T08:04:32.976Z,65.50
2019-03-27T08:06:38.939Z,65.50
2019-03-27T08:08:45.422Z,65.30
2019-03-27T08:10:52.087Z,65.10
2019-03-27T08:12:58.021Z,65.00
2019-03-27T08:15:04.188Z,65.10
2019-03-27T08:17:10.722Z,63.80
2019-03-27T08:19:16.798Z,63.40
2019-03-27T08:21:22.903Z,63.20
2019-03-27T08:23:29.271Z,62.80
2019-03-27T08:25:35.622Z,62.60
2019-03-27T08:27:42.170Z,62.50
2019-03-27T08:29:47.882Z,62.00
2019-03-27T08:31:53.580Z,61.60
2019-03-27T08:33:59.624Z,61.10
2019-03-27T08:36:05.567Z,60.80
2019-03-27T08:38:14.905Z,60.30
2019-03-27T08:40:19.742Z,59.70
2019-03-27T08:42:25.760Z,59.20
2019-03-27T08:44:31.880Z,59.20
2019-03-27T08:46:38.033Z,59.40
2019-03-27T08:48:45.098Z,59.40
2019-03-27T08:50:50.936Z,60.30
2019-03-27T08:52:57.767Z,59.10
2019-03-27T08:55:04.257Z,58.50
2019-03-27T08:57:10.341Z,57.90
2019-03-27T08:59:17.035Z,57.50
2019-03-27T09:01:23.058Z,57.20
2019-03-27T09:03:29.043Z,57.10
2019-03-27T09:05:34.830Z,56.50
2019-03-27T09:07:41.917Z,56.30
2019-03-27T09:09:47.994Z,56.10
2019-03-27T09:11:54.065Z,55.80
2019-03-27T09:13:59.829Z,55.70
2019-03-27T09:16:06.041Z,55.50
2019-03-27T09:18:12.148Z,55.20
2019-03-27T09:20:18.349Z,54.80
2019-03-27T09:22:24.282Z,54.40
2019-03-27T09:24:31.228Z,54.20
2019-03-27T09:26:36.998Z,54.10
2019-03-27T09:28:42.754Z,54.00
2019-03-27T09:30:49.159Z,53.90
2019-03-27T09:32:55.639Z,53.90
2019-03-27T09:35:02.099Z,53.90
2019-03-27T09:37:09.644Z,53.90
2019-03-27T09:39:15.436Z,53.90
2019-03-27T09:41:21.761Z,53.80
2019-03-27T09:43:27.551Z,53.30
2019-03-27T09:45:33.624Z,53.10
2019-03-27T09:47:39.831Z,52.60
2019-03-27T09:49:49.707Z,52.40
2019-03-27T09:51:53.883Z,52.30
2019-03-27T09:53:59.676Z,52.10
2019-03-27T09:56:18.573Z,51.80
2019-03-27T09:58:14.600Z,51.70
2019-03-27T10:01:00.777Z,51.50
2019-03-27T10:03:06.493Z,51.60
2019-03-27T10:05:12.638Z,51.60
2019-03-27T10:07:18.800Z,51.30
2019-03-27T10:09:25.080Z,51.20
2019-03-27T10:11:31.869Z,51.30
2019-03-27T10:13:38.036Z,51.00
2019-03-27T10:15:44.250Z,51.20
2019-03-27T10:17:50.287Z,50.50
2019-03-27T10:20:03.267Z,50.70
2019-03-27T10:22:04.338Z,50.60
2019-03-27T10:24:10.151Z,50.00
2019-03-27T10:26:17.201Z,49.50
2019-03-27T10:28:23.643Z,49.10
2019-03-27T10:30:29.665Z,48.80
2019-03-27T10:32:35.461Z,48.50
2019-03-27T10:34:42.013Z,48.00
2019-03-27T10:36:48.209Z,47.40
2019-03-27T10:38:55.458Z,47.50
2019-03-27T10:41:01.498Z,47.10
2019-03-27T10:43:07.879Z,46.70
2019-03-27T10:45:14.395Z,46.50
2019-03-27T10:47:20.347Z,46.60
2019-03-27T10:49:26.183Z,46.80
2019-03-27T10:51:32.631Z,47.10
2019-03-27T10:53:38.708Z,46.80
2019-03-27T10:55:44.552Z,46.80
2019-03-27T10:57:50.934Z,46.50
2019-03-27T10:59:57.109Z,46.60
2019-03-27T11:02:03.366Z,46.80
2019-03-27T11:04:09.406Z,46.90
2019-03-27T11:06:15.174Z,47.00
2019-03-27T11:08:20.883Z,46.80
2019-03-27T11:10:26.650Z,46.70
2019-03-27T11:12:32.436Z,46.50
2019-03-27T11:14:38.510Z,46.50
2019-03-27T11:16:44.446Z,46.50
2019-03-27T11:18:50.836Z,46.60
2019-03-27T11:20:57.516Z,46.60
2019-03-27T11:23:04.093Z,46.50
2019-03-27T11:25:11.162Z,46.00
2019-03-27T11:27:16.911Z,45.20
2019-03-27T11:29:22.601Z,45.10
2019-03-27T11:31:29.466Z,45.20
2019-03-27T11:33:35.574Z,45.10
2019-03-27T11:35:41.570Z,44.80
2019-03-27T11:37:48.023Z,44.60
2019-03-27T11:39:54.130Z,44.20
2019-03-27T11:42:00.934Z,43.40
2019-03-27T11:44:07.312Z,43.50
2019-03-27T11:46:13.105Z,43.80
2019-03-27T11:48:18.939Z,43.20
2019-03-27T11:50:24.912Z,43.30
2019-03-27T11:52:30.697Z,42.90
2019-03-27T11:54:36.846Z,42.70
2019-03-27T11:56:42.611Z,42.80
2019-03-27T11:58:49.271Z,42.70
2019-03-27T12:00:55.295Z,42.70
2019-03-27T12:03:01.461Z,42.50
2019-03-27T12:05:08.634Z,42.60
2019-03-27T12:07:14.734Z,42.60
2019-03-27T12:09:20.841Z,42.80
2019-03-27T12:11:26.715Z,42.80
2019-03-27T12:13:32.660Z,42.80
2019-03-27T12:15:43.621Z,42.80
2019-03-27T12:17:49.937Z,43.00
2019-03-27T12:19:56.081Z,43.10
2019-03-27T12:22:01.873Z,43.10
2019-03-27T12:24:07.997Z,43.30
2019-03-27T12:26:13.731Z,43.10
2019-03-27T12:28:20.358Z,43.20
2019-03-27T12:30:26.199Z,42.90
2019-03-27T12:32:32.317Z,42.80
2019-03-27T12:34:38.029Z,42.80
2019-03-27T12:36:44.134Z,42.50
2019-03-27T12:38:50.458Z,42.40
2019-03-27T12:40:57.269Z,42.40
2019-03-27T12:43:03.283Z,42.10
2019-03-27T12:45:09.840Z,41.70
2019-03-27T12:47:15.912Z,41.30
2019-03-27T12:49:21.651Z,41.10
2019-03-27T12:51:27.503Z,40.20
2019-03-27T12:53:33.191Z,39.90
2019-03-27T12:55:39.170Z,39.70
2019-03-27T12:57:45.405Z,40.00
2019-03-27T12:59:51.827Z,40.10
2019-03-27T13:01:58.206Z,40.40
2019-03-27T13:04:04.384Z,40.60
2019-03-27T13:06:10.460Z,41.00
2019-03-27T13:08:16.215Z,40.90
2019-03-27T13:10:22.561Z,40.80
2019-03-27T13:12:28.694Z,40.60
2019-03-27T13:14:35.038Z,40.90
2019-03-27T13:16:41.432Z,40.90
2019-03-27T13:18:47.864Z,40.70
2019-03-27T13:20:54.741Z,40.60
2019-03-27T13:23:01.022Z,40.60
2019-03-27T13:25:07.527Z,40.70
2019-03-27T13:27:13.566Z,40.20
2019-03-27T13:29:20.263Z,40.40
2019-03-27T13:31:26.401Z,40.40
2019-03-27T13:33:32.208Z,40.30
2019-03-27T13:35:38.256Z,40.50
2019-03-27T13:37:44.236Z,40.40
2019-03-27T13:39:50.042Z,40.50
2019-03-27T13:41:56.064Z,40.60
2019-03-27T13:44:02.047Z,40.50
2019-03-27T13:46:08.435Z,40.20
2019-03-27T13:48:14.523Z,40.00
2019-03-27T13:50:22.086Z,39.90
2019-03-27T13:52:27.781Z,40.00
2019-03-27T13:54:33.887Z,39.90
2019-03-27T13:56:39.665Z,39.90
2019-03-27T13:58:45.612Z,39.80
2019-03-27T14:00:51.311Z,39.40
2019-03-27T14:02:56.976Z,39.90
2019-03-27T14:05:03.408Z,39.60
2019-03-27T14:07:09.832Z,39.30
2019-03-27T14:09:16.984Z,39.20
2019-03-27T14:11:23.416Z,39.30
2019-03-27T14:13:29.572Z,39.30
2019-03-27T14:15:35.715Z,39.40
2019-03-27T14:17:41.486Z,39.50
2019-03-27T14:19:47.236Z,39.30
2019-03-27T14:21:55.019Z,39.40
2019-03-27T14:24:01.058Z,39.50
2019-03-27T14:26:07.012Z,39.30
2019-03-27T14:28:13.175Z,39.30
2019-03-27T14:30:50.491Z,39.40
2019-03-27T14:32:58.909Z,39.20
2019-03-27T14:35:05.233Z,39.40
2019-03-27T14:37:13.267Z,39.40
2019-03-27T14:39:19.077Z,39.30
2019-03-27T14:41:25.131Z,39.40
2019-03-27T14:43:30.922Z,39.60
2019-03-27T14:45:38.924Z,39.80
2019-03-27T14:47:46.162Z,39.60
2019-03-27T14:49:52.502Z,40.10
2019-03-27T14:52:08.261Z,39.40
2019-03-27T14:54:06.427Z,39.30
2019-03-27T14:56:12.907Z,39.50
2019-03-27T14:58:19.892Z,39.70
2019-03-27T15:00:27.234Z,39.70
2019-03-27T15:02:33.406Z,39.70
2019-03-27T15:04:40.163Z,39.60
2019-03-27T15:06:46.206Z,39.50
2019-03-27T15:08:52.536Z,39.30
2019-03-27T15:10:58.313Z,39.10
2019-03-27T15:13:04.716Z,39.30
2019-03-27T15:15:11.477Z,39.20
2019-03-27T15:17:18.013Z,39.20
2019-03-27T15:19:23.708Z,39.30
2019-03-27T15:21:29.423Z,39.50
2019-03-27T15:23:37.005Z,39.50
2019-03-27T15:25:42.798Z,39.70
2019-03-27T15:27:49.196Z,39.70
2019-03-27T15:29:54.881Z,39.60
2019-03-27T15:32:01.181Z,39.70
2019-03-27T15:34:07.154Z,39.80
2019-03-27T15:36:13.015Z,39.90
2019-03-27T15:38:19.257Z,39.90
2019-03-27T15:40:44.743Z,39.80
2019-03-27T15:42:50.911Z,39.90
2019-03-27T15:44:58.077Z,39.90
2019-03-27T15:47:05.378Z,39.80
2019-03-27T15:49:11.402Z,40.10
2019-03-27T15:51:17.460Z,40.40
2019-03-27T15:53:23.665Z,40.40
2019-03-27T15:55:29.792Z,40.40
2019-03-27T15:57:35.870Z,40.40
2019-03-27T15:59:42.026Z,40.40
2019-03-27T16:01:48.405Z,40.20
2019-03-27T16:03:54.420Z,40.20
2019-03-27T16:06:01.020Z,40.20
2019-03-27T16:08:07.368Z,40.20
2019-03-27T16:10:14.275Z,40.20
2019-03-27T16:12:20.444Z,40.50
2019-03-27T16:14:26.414Z,40.70
2019-03-27T16:16:32.403Z,40.70
2019-03-27T16:18:38.250Z,40.70
2019-03-27T16:20:44.542Z,40.70
2019-03-27T16:22:51.326Z,40.60
2019-03-27T16:24:57.335Z,40.80
2019-03-27T16:27:05.057Z,41.30
2019-03-27T16:29:11.384Z,40.70
2019-03-27T16:31:18.064Z,40.90
2019-03-27T16:33:23.775Z,41.10
2019-03-27T16:35:29.966Z,41.20
2019-03-27T16:37:36.692Z,41.50
2019-03-27T16:39:42.472Z,41.60
2019-03-27T16:41:48.451Z,41.40
2019-03-27T16:43:54.186Z,41.30
2019-03-27T16:46:00.461Z,41.50
2019-03-27T16:48:06.605Z,41.40
2019-03-27T16:50:13.110Z,41.40
2019-03-27T16:52:20.023Z,41.30
2019-03-27T16:54:26.411Z,41.30
2019-03-27T16:56:32.520Z,41.50
2019-03-27T16:58:40.390Z,42.00
2019-03-27T17:00:47.191Z,42.30
2019-03-27T17:02:53.738Z,42.50
2019-03-27T17:04:59.759Z,42.90
2019-03-27T17:07:05.939Z,43.20
2019-03-27T17:09:12.131Z,43.10
2019-03-27T17:11:18.298Z,43.20
2019-03-27T17:13:24.400Z,43.50
2019-03-27T17:15:30.263Z,44.10
2019-03-27T17:17:36.075Z,43.60
2019-03-27T17:19:41.789Z,43.80
2019-03-27T17:21:47.812Z,44.00
2019-03-27T17:23:53.873Z,44.30
2019-03-27T17:25:59.992Z,44.40
2019-03-27T17:28:06.070Z,44.70
2019-03-27T17:30:13.878Z,44.90
2019-03-27T17:32:19.681Z,45.00
2019-03-27T17:34:26.344Z,45.20
2019-03-27T17:36:33.141Z,45.40
2019-03-27T17:38:38.876Z,45.50
2019-03-27T17:40:45.178Z,45.40
2019-03-27T17:42:51.128Z,45.30
2019-03-27T17:44:56.807Z,45.30
2019-03-27T17:47:02.689Z,45.40
2019-03-27T17:49:08.767Z,45.60
2019-03-27T17:51:14.838Z,45.90
2019-03-27T17:53:30.982Z,45.90
2019-03-27T17:55:28.636Z,45.90
2019-03-27T17:57:34.849Z,46.10
2019-03-27T17:59:40.875Z,46.20
2019-03-27T18:01:47.613Z,46.40
2019-03-27T18:03:53.714Z,46.60
2019-03-27T18:05:59.909Z,46.70
2019-03-27T18:08:06.130Z,46.80
2019-03-27T18:10:12.461Z,47.00
2019-03-27T18:12:18.583Z,47.00
2019-03-27T18:14:25.040Z,47.10
2019-03-27T18:16:30.987Z,47.30
2019-03-27T18:18:37.241Z,47.30
2019-03-27T18:20:43.290Z,47.30
2019-03-27T18:22:49.815Z,47.50
2019-03-27T18:24:56.766Z,47.50
2019-03-27T18:27:03.108Z,47.50
2019-03-27T18:29:10.399Z,47.70
2019-03-27T18:31:16.498Z,47.70
2019-03-27T18:33:22.255Z,47.70
2019-03-27T18:35:28.750Z,47.80
2019-03-27T18:37:34.860Z,48.00
2019-03-27T18:39:41.300Z,48.10
2019-03-27T18:41:47.789Z,48.20
2019-03-27T18:43:53.763Z,48.40
2019-03-27T18:45:59.937Z,48.30
2019-03-27T18:48:06.385Z,48.40
2019-03-27T18:50:13.701Z,48.40
2019-03-27T18:52:19.956Z,48.30
2019-03-27T18:54:26.107Z,48.50
2019-03-27T18:56:32.569Z,48.70
2019-03-27T18:58:39.041Z,49.40
2019-03-27T19:00:44.954Z,48.80
2019-03-27T19:02:51.081Z,48.80
2019-03-27T19:04:57.748Z,49.00
2019-03-27T19:07:03.832Z,49.10
2019-03-27T19:09:10.655Z,49.20
2019-03-27T19:11:16.373Z,49.40
2019-03-27T19:13:22.100Z,49.40
2019-03-27T19:15:27.910Z,49.70
2019-03-27T19:17:34.039Z,49.90
2019-03-27T19:19:40.091Z,50.00
2019-03-27T19:21:45.865Z,50.30
2019-03-27T19:23:51.549Z,50.50
2019-03-27T19:25:57.278Z,50.60
2019-03-27T19:28:03.376Z,50.70
2019-03-27T19:30:11.652Z,50.70
2019-03-27T19:32:18.795Z,50.90
2019-03-27T19:34:25.186Z,51.00
2019-03-27T19:36:31.244Z,51.20
2019-03-27T19:38:37.933Z,51.20
2019-03-27T19:40:44.217Z,51.90
2019-03-27T19:42:50.627Z,51.40
2019-03-27T19:44:56.898Z,51.40
2019-03-27T19:47:03.055Z,51.70
2019-03-27T19:49:09.551Z,51.70
2019-03-27T19:51:15.638Z,52.20
2019-03-27T19:53:21.433Z,51.50
2019-03-27T19:55:27.456Z,52.30
2019-03-27T19:57:34.007Z,51.70
2019-03-27T19:59:40.019Z,51.70
2019-03-27T20:01:46.295Z,51.80
2019-03-27T20:03:51.985Z,51.90
2019-03-27T20:05:58.382Z,52.00
2019-03-27T20:08:04.146Z,52.10
2019-03-27T20:10:11.312Z,52.20
2019-03-27T20:12:17.794Z,52.20
2019-03-27T20:14:23.764Z,52.10
2019-03-27T20:16:29.834Z,52.20
2019-03-27T20:18:36.118Z,52.20
2019-03-27T20:20:42.453Z,52.20
2019-03-27T20:22:48.898Z,52.30
2019-03-27T20:24:55.201Z,52.40
2019-03-27T20:27:01.384Z,52.50
2019-03-27T20:29:08.707Z,52.50
2019-03-27T20:31:14.978Z,52.60
2019-03-27T20:33:21.400Z,52.60
2019-03-27T20:35:27.908Z,52.60
2019-03-27T20:37:34.063Z,52.60
2019-03-27T20:39:42.631Z,52.70
2019-03-27T20:41:49.118Z,52.60
2019-03-27T20:43:55.927Z,52.70
2019-03-27T20:46:02.997Z,52.70
2019-03-27T20:48:09.477Z,52.60
2019-03-27T20:50:16.564Z,52.80
2019-03-27T20:52:22.928Z,52.70
2019-03-27T20:54:29.771Z,53.20
2019-03-27T20:56:36.286Z,52.90
2019-03-27T20:58:42.478Z,52.90
2019-03-27T21:00:48.691Z,53.00
2019-03-27T21:02:54.784Z,53.70
2019-03-27T21:05:01.425Z,53.80
2019-03-27T21:07:07.388Z,53.80
2019-03-27T21:09:13.864Z,53.80
2019-03-27T21:11:19.649Z,53.80
2019-03-27T21:13:26.249Z,53.80
2019-03-27T21:15:32.285Z,53.80
2019-03-27T21:17:38.709Z,53.70
2019-03-27T21:19:44.729Z,53.70
2019-03-27T21:21:51.262Z,53.90
2019-03-27T21:23:57.286Z,53.70
2019-03-27T21:26:02.982Z,53.60
2019-03-27T21:28:09.552Z,53.90
2019-03-27T21:30:15.852Z,53.90
2019-03-27T21:32:21.918Z,53.90
2019-03-27T21:34:27.961Z,53.90
2019-03-27T21:36:33.787Z,53.90
2019-03-27T21:38:39.845Z,54.00
2019-03-27T21:40:46.032Z,54.50
2019-03-27T21:42:52.400Z,54.00
2019-03-27T21:44:59.529Z,54.20
2019-03-27T21:47:05.284Z,54.30
2019-03-27T21:49:11.073Z,54.40
2019-03-27T21:51:17.427Z,54.30
2019-03-27T21:53:23.491Z,54.30
2019-03-27T21:55:42.232Z,54.20
2019-03-27T21:57:38.257Z,54.20
2019-03-27T21:59:44.675Z,54.20
2019-03-27T22:01:50.479Z,54.20
2019-03-27T22:03:56.737Z,54.30
2019-03-27T22:06:03.210Z,54.30
2019-03-27T22:08:09.461Z,54.10
2019-03-27T22:10:15.399Z,54.20
2019-03-27T22:12:21.631Z,54.30
2019-03-27T22:14:28.027Z,54.40
2019-03-27T22:16:34.161Z,54.30
2019-03-27T22:18:40.264Z,54.50
2019-03-27T22:20:47.078Z,54.60
2019-03-27T22:22:53.129Z,54.70
2019-03-27T22:24:58.843Z,54.80
2019-03-27T22:27:04.927Z,54.80
2019-03-27T22:29:10.692Z,54.80
2019-03-27T22:31:17.400Z,54.80
2019-03-27T22:33:23.115Z,54.90
2019-03-27T22:35:28.783Z,54.90
2019-03-27T22:37:34.723Z,54.90
2019-03-27T22:39:41.021Z,55.00
2019-03-27T22:41:47.103Z,55.00
2019-03-27T22:43:52.726Z,55.00
2019-03-27T22:45:58.461Z,55.20
2019-03-27T22:48:04.921Z,55.40
2019-03-27T22:50:11.291Z,55.40
2019-03-27T22:52:17.500Z,55.40
2019-03-27T22:54:23.516Z,55.40
2019-03-27T22:56:29.628Z,55.50
2019-03-27T22:58:35.501Z,55.50
2019-03-27T23:00:48.613Z,55.60
2019-03-27T23:02:54.686Z,55.70
2019-03-27T23:05:00.563Z,55.70
2019-03-27T23:07:06.631Z,55.90
2019-03-27T23:09:12.713Z,55.90
2019-03-27T23:11:18.706Z,56.00
2019-03-27T23:13:24.670Z,56.00
2019-03-27T23:15:30.453Z,56.00
2019-03-27T23:17:36.399Z,56.00
2019-03-27T23:19:42.463Z,56.20
2019-03-27T23:21:48.742Z,56.10
2019-03-27T23:23:55.012Z,56.10
2019-03-27T23:26:03.283Z,56.20
2019-03-27T23:28:09.085Z,56.10
2019-03-27T23:30:15.502Z,56.40
2019-03-27T23:32:21.762Z,56.20
2019-03-27T23:34:28.471Z,56.20
2019-03-27T23:36:35.040Z,56.30
2019-03-27T23:38:41.587Z,56.30
2019-03-27T23:40:48.030Z,56.30
2019-03-27T23:42:54.033Z,56.30
2019-03-27T23:44:59.724Z,56.30
2019-03-27T23:47:05.877Z,56.30
2019-03-27T23:49:12.822Z,56.30
2019-03-27T23:51:18.836Z,56.30
2019-03-27T23:53:25.688Z,56.30
2019-03-27T23:55:33.070Z,57.20
2019-03-27T23:57:39.177Z,57.20
2019-03-27T23:59:45.239Z,57.20
